Time;durP1;ratioP1;P1;durP2;ratioP2;P2;SDS_P1;SDS_P2;PMS_P1;PMS_P2;Temp;Humidity;BMP_temperature;BMP_pressure;BME280_temperature;BME280_humidity;BME280_pressure;Samples;Min_cycle;Max_cycle;Signal;HPM_P1;HPM_P2
2023/01/13 00:01:38;;;;;;;2.40;0.63;;;;;;;;;;5037950;28;20064;-75
2023/01/13 00:04:05;;;;;;;0.75;0.50;;;;;;;;;;5034779;28;20125;-75
2023/01/13 00:06:32;;;;;;;2.15;0.60;;;;;;;;;;5035137;28;20081;-76
2023/01/13 00:08:58;;;;;;;2.50;0.70;;;;;;;;;;5034717;28;20476;-76
2023/01/13 00:11:26;;;;;;;3.28;0.63;;;;;;;;;;5034243;28;20547;-76
2023/01/13 00:13:53;;;;;;;1.02;0.40;;;;;;;;;;5034948;28;20382;-76
2023/01/13 00:16:20;;;;;;;2.53;0.60;;;;;;;;;;5034728;28;20713;-76
2023/01/13 00:18:49;;;;;;;1.65;0.60;;;;;;;;;;5035712;28;20728;-77
2023/01/13 00:21:18;;;;;;;2.28;0.70;;;;;;;;;;5035336;28;20080;-76
2023/01/13 00:23:46;;;;;;;2.05;0.50;;;;;;;;;;5034790;28;20056;-76
2023/01/13 00:26:16;;;;;;;2.20;0.60;;;;;;;;;;5034025;28;20136;-76
2023/01/13 00:28:43;;;;;;;;;;;;;;;;;;5034970;28;20054;-76
2023/01/13 00:31:12;;;;;;;2.72;0.70;;;;;;;;;;5034386;28;19921;-76
2023/01/13 00:33:39;;;;;;;3.53;0.70;;;;;;;;;;5037378;28;20413;-74
2023/01/13 00:36:11;;;;;;;1.25;0.50;;;;;;;;;;5038301;28;20136;-76
2023/01/13 00:38:38;;;;;;;2.67;0.73;;;;;;;;;;5037318;28;20050;-75
2023/01/13 00:41:07;;;;;;;2.22;0.80;;;;;;;;;;5038073;28;20076;-75
2023/01/13 00:43:34;;;;;;;2.70;1.30;;;;;;;;;;5036672;28;20056;-76
2023/01/13 00:46:02;;;;;;;1.30;0.43;;;;;;;;;;5029278;28;20056;-75
2023/01/13 00:48:29;;;;;;;1.45;0.50;;;;;;;;;;5037740;28;20045;-76
2023/01/13 00:50:57;;;;;;;2.67;0.80;;;;;;;;;;5037109;28;20133;-76
2023/01/13 00:53:26;;;;;;;1.30;0.50;;;;;;;;;;5037525;28;20103;-76
2023/01/13 00:55:59;;;;;;;1.63;0.50;;;;;;;;;;5047539;28;20049;-75
2023/01/13 00:58:25;;;;;;;2.65;0.52;;;;;;;;;;5040131;28;20053;-76
2023/01/13 01:00:52;;;;;;;2.45;0.50;;;;;;;;;;5037044;28;20133;-76
2023/01/13 01:03:19;;;;;;;1.45;0.43;;;;;;;;;;5036335;28;20060;-76
2023/01/13 01:05:45;;;;;;;2.28;0.50;;;;;;;;;;5036118;28;20052;-74
2023/01/13 01:08:12;;;;;;;2.22;0.77;;;;;;;;;;5036501;28;20049;-74
2023/01/13 01:10:40;;;;;;;1.42;0.50;;;;;;;;;;5036424;28;20128;-76
2023/01/13 01:13:06;;;;;;;0.70;0.40;;;;;;;;;;5035945;28;20049;-75
2023/01/13 01:15:33;;;;;;;1.45;0.55;;;;;;;;;;5035911;28;20144;-75
2023/01/13 01:18:00;;;;;;;0.95;0.50;;;;;;;;;;5035917;28;20077;-76
2023/01/13 01:20:26;;;;;;;1.45;0.50;;;;;;;;;;5036512;28;20056;-76
2023/01/13 01:22:53;;;;;;;1.80;0.93;;;;;;;;;;5036272;28;20041;-76
2023/01/13 01:25:20;;;;;;;1.13;0.70;;;;;;;;;;5035957;28;20124;-76
2023/01/13 01:27:48;;;;;;;1.98;0.70;;;;;;;;;;5035819;28;20057;-75
2023/01/13 01:30:15;;;;;;;0.75;0.47;;;;;;;;;;5035517;28;20055;-75
2023/01/13 01:32:41;;;;;;;1.35;0.50;;;;;;;;;;5035621;28;20140;-76
2023/01/13 01:35:08;;;;;;;2.90;0.70;;;;;;;;;;5035525;28;20087;-76
2023/01/13 01:37:35;;;;;;;2.17;0.73;;;;;;;;;;5035461;28;20049;-75
2023/01/13 01:40:02;;;;;;;2.40;0.73;;;;;;;;;;5035651;28;20487;-76
2023/01/13 01:45:18;;;;;;;2.83;0.75;;;;;;;;;;5035531;28;20057;-75
2023/01/13 01:47:47;;;;;;;0.73;0.45;;;;;;;;;;5034727;28;20504;-75
2023/01/13 01:50:14;;;;;;;0.45;0.32;;;;;;;;;;5034487;28;20109;-75
2023/01/13 01:52:45;;;;;;;1.73;0.68;;;;;;;;;;5034754;28;20052;-76
2023/01/13 01:55:13;;;;;;;;;;;;;;;;;;5035096;28;20049;-76
2023/01/13 01:57:43;;;;;;;1.75;0.75;;;;;;;;;;5034621;28;20012;-75
2023/01/13 02:00:11;;;;;;;3.13;0.60;;;;;;;;;;5034854;28;20140;-76
2023/01/13 02:02:40;;;;;;;2.22;0.70;;;;;;;;;;5034058;28;20091;-75
2023/01/13 02:05:08;;;;;;;3.15;0.60;;;;;;;;;;5034347;28;20048;-75
2023/01/13 02:07:36;;;;;;;1.85;0.70;;;;;;;;;;5035324;28;20080;-76
2023/01/13 02:10:08;;;;;;;1.88;0.50;;;;;;;;;;5035203;28;20049;-75
2023/01/13 02:12:35;;;;;;;1.27;0.60;;;;;;;;;;5034561;28;20571;-77
2023/01/13 02:15:05;;;;;;;1.38;0.75;;;;;;;;;;5034629;28;20045;-76
2023/01/13 02:17:51;;;;;;;1.40;0.70;;;;;;;;;;5034523;28;20493;-76
2023/01/13 02:20:52;;;;;;;1.90;0.70;;;;;;;;;;5034526;28;20582;-76
2023/01/13 02:27:26;;;;;;;1.80;0.68;;;;;;;;;;5010541;28;20053;-76
2023/01/13 02:32:59;;;;;;;1.05;0.50;;;;;;;;;;5042093;28;20052;-74
2023/01/13 02:35:30;;;;;;;1.63;0.63;;;;;;;;;;5042651;28;20124;-75
2023/01/13 02:37:59;;;;;;;0.80;0.40;;;;;;;;;;5041501;28;20080;-75
2023/01/13 02:40:32;;;;;;;1.92;0.68;;;;;;;;;;5036474;28;20048;-77
2023/01/13 02:45:57;;;;;;;0.70;0.45;;;;;;;;;;5034297;28;20131;-77
2023/01/13 02:48:25;;;;;;;3.00;0.82;;;;;;;;;;5033402;28;20140;-75
2023/01/13 02:50:56;;;;;;;1.92;0.80;;;;;;;;;;5033892;28;20128;-76
2023/01/13 02:53:27;;;;;;;1.33;0.40;;;;;;;;;;5033618;28;20132;-76
2023/01/13 02:55:57;;;;;;;1.48;0.40;;;;;;;;;;5032670;28;20042;-76
2023/01/13 02:58:28;;;;;;;0.95;0.40;;;;;;;;;;5033191;28;20420;-75
2023/01/13 03:00:56;;;;;;;1.30;0.40;;;;;;;;;;5033472;28;20100;-77
2023/01/13 03:03:23;;;;;;;1.67;0.40;;;;;;;;;;5033033;28;20047;-75
2023/01/13 03:05:54;;;;;;;0.98;0.52;;;;;;;;;;5033609;28;20488;-75
2023/01/13 03:08:31;;;;;;;1.92;0.45;;;;;;;;;;5033875;28;20049;-76
2023/01/13 03:11:03;;;;;;;1.92;0.40;;;;;;;;;;5034316;28;20510;-75
2023/01/13 03:13:48;;;;;;;1.77;0.43;;;;;;;;;;5033005;28;20124;-75
2023/01/13 03:16:26;;;;;;;1.35;0.40;;;;;;;;;;5032183;28;20045;-76
2023/01/13 03:19:06;;;;;;;0.52;0.45;;;;;;;;;;5033095;28;20045;-76
2023/01/13 03:21:39;;;;;;;0.75;0.45;;;;;;;;;;5033112;28;20104;-74
2023/01/13 03:24:11;;;;;;;0.40;0.40;;;;;;;;;;5032406;28;20496;-75
2023/01/13 03:26:42;;;;;;;1.23;0.35;;;;;;;;;;5032495;28;20132;-76
2023/01/13 03:29:14;;;;;;;1.15;0.35;;;;;;;;;;5032025;28;20049;-75
2023/01/13 03:31:47;;;;;;;0.88;0.40;;;;;;;;;;5032337;28;20049;-76
2023/01/13 03:34:20;;;;;;;2.35;0.50;;;;;;;;;;5033693;28;20055;-76
2023/01/13 03:36:51;;;;;;;1.77;0.40;;;;;;;;;;5032667;28;20050;-76
2023/01/13 03:39:22;;;;;;;2.38;0.50;;;;;;;;;;5032730;28;20045;-76
2023/01/13 03:41:56;;;;;;;2.03;0.73;;;;;;;;;;5037084;28;20049;-76
2023/01/13 03:44:30;;;;;;;0.70;0.38;;;;;;;;;;5043186;28;20104;-79
2023/01/13 03:47:04;;;;;;;0.65;0.32;;;;;;;;;;5036694;28;20049;-75
2023/01/13 03:49:36;;;;;;;0.70;0.40;;;;;;;;;;5035392;28;20073;-77
2023/01/13 03:52:08;;;;;;;0.88;0.30;;;;;;;;;;5034389;28;20413;-77
2023/01/13 03:54:43;;;;;;;1.55;0.40;;;;;;;;;;5033121;28;20142;-76
2023/01/13 03:57:15;;;;;;;0.77;0.40;;;;;;;;;;5031347;28;20385;-76
2023/01/13 03:59:45;;;;;;;0.38;0.30;;;;;;;;;;5024439;28;20050;-76
2023/01/13 04:02:17;;;;;;;;;;;;;;;;;;5033136;28;20125;-77
2023/01/13 04:04:47;;;;;;;1.58;0.32;;;;;;;;;;5032526;28;20055;-76
2023/01/13 04:07:24;;;;;;;1.17;0.40;;;;;;;;;;5034933;28;20061;-76
2023/01/13 04:09:54;;;;;;;0.70;0.40;;;;;;;;;;5035964;28;20045;-75
2023/01/13 04:12:27;;;;;;;0.73;0.37;;;;;;;;;;5035570;28;20045;-76
2023/01/13 04:14:58;;;;;;;1.58;0.40;;;;;;;;;;5036077;28;20274;-75
2023/01/13 04:17:26;;;;;;;1.45;0.40;;;;;;;;;;5036558;28;20128;-75
2023/01/13 04:19:53;;;;;;;0.55;0.30;;;;;;;;;;5036047;28;20045;-76
2023/01/13 04:22:19;;;;;;;1.30;0.45;;;;;;;;;;5035437;28;20053;-76
2023/01/13 04:24:46;;;;;;;0.43;0.30;;;;;;;;;;5035904;28;20443;-76
2023/01/13 04:27:12;;;;;;;0.75;0.35;;;;;;;;;;5035534;28;20440;-75
2023/01/13 04:29:39;;;;;;;2.70;0.40;;;;;;;;;;5035745;28;20420;-75
2023/01/13 04:32:06;;;;;;;1.65;0.40;;;;;;;;;;5035207;28;20132;-76
2023/01/13 04:34:34;;;;;;;1.30;0.55;;;;;;;;;;5035401;28;20042;-76
2023/01/13 04:37:00;;;;;;;0.85;0.38;;;;;;;;;;5035507;28;20809;-75
2023/01/13 04:39:27;;;;;;;1.98;0.50;;;;;;;;;;5035428;28;20053;-76
2023/01/13 04:42:01;;;;;;;4.72;0.90;;;;;;;;;;5035308;28;20043;-76
2023/01/13 04:44:29;;;;;;;1.60;0.50;;;;;;;;;;5034115;28;20083;-76
2023/01/13 04:46:57;;;;;;;2.60;0.70;;;;;;;;;;5036186;28;20057;-76
2023/01/13 04:49:23;;;;;;;1.38;0.40;;;;;;;;;;5035371;28;20072;-76
2023/01/13 04:51:51;;;;;;;0.85;0.50;;;;;;;;;;5035879;28;20045;-76
2023/01/13 04:54:18;;;;;;;1.73;0.45;;;;;;;;;;5035783;28;20048;-76
2023/01/13 04:56:45;;;;;;;0.98;0.43;;;;;;;;;;5035831;28;20037;-76
2023/01/13 04:59:12;;;;;;;1.25;0.40;;;;;;;;;;5036218;28;20109;-75
2023/01/13 05:01:39;;;;;;;0.68;0.40;;;;;;;;;;5036649;28;20049;-77
2023/01/13 05:04:07;;;;;;;1.20;0.50;;;;;;;;;;5035772;28;20052;-76
2023/01/13 05:06:34;;;;;;;1.65;0.50;;;;;;;;;;5037129;28;20049;-75
2023/01/13 05:09:02;;;;;;;1.42;0.70;;;;;;;;;;5036527;28;20045;-76
2023/01/13 05:17:07;;;;;;;1.25;0.30;;;;;;;;;;5036180;28;20115;-76
2023/01/13 05:19:37;;;;;;;1.35;0.57;;;;;;;;;;5036845;28;20049;-76
2023/01/13 05:27:34;;;;;;;1.58;0.40;;;;;;;;;;5033838;28;20590;-76
2023/01/13 05:30:00;;;;;;;1.58;0.50;;;;;;;;;;5035503;28;20053;-76
2023/01/13 05:32:27;;;;;;;1.42;0.43;;;;;;;;;;5034534;28;20504;-75
2023/01/13 05:34:54;;;;;;;1.38;0.80;;;;;;;;;;5034159;28;20129;-75
2023/01/13 05:37:21;;;;;;;1.65;0.50;;;;;;;;;;5033908;28;20038;-76
2023/01/13 05:45:18;;;;;;;2.17;0.47;;;;;;;;;;5033835;28;20057;-76
2023/01/13 05:47:44;;;;;;;2.15;0.60;;;;;;;;;;5033982;28;20060;-77
2023/01/13 05:50:11;;;;;;;1.92;0.40;;;;;;;;;;5034849;28;20045;-77
2023/01/13 05:52:38;;;;;;;1.50;0.50;;;;;;;;;;5033538;28;20051;-76
2023/01/13 05:55:06;;;;;;;1.23;0.50;;;;;;;;;;5035712;28;20076;-77
2023/01/13 05:57:33;;;;;;;1.52;0.50;;;;;;;;;;5042538;22;20046;-83
2023/01/13 06:00:00;;;;;;;0.90;0.40;;;;;;;;;;5036042;28;20045;-81
2023/01/13 06:02:27;;;;;;;1.88;0.75;;;;;;;;;;5035391;28;20065;-84
2023/01/13 06:04:53;;;;;;;1.02;0.50;;;;;;;;;;5027357;28;20046;-81
2023/01/13 06:07:20;;;;;;;2.33;0.60;;;;;;;;;;5033992;28;20053;-84
2023/01/13 06:09:46;;;;;;;0.80;0.50;;;;;;;;;;5023167;28;20072;-83
2023/01/13 06:12:15;;;;;;;0.80;0.30;;;;;;;;;;5023593;28;20052;-83
2023/01/13 06:14:41;;;;;;;2.28;0.52;;;;;;;;;;5024053;28;20053;-83
2023/01/13 06:17:10;;;;;;;1.83;0.57;;;;;;;;;;5021363;28;20064;-84
2023/01/13 06:19:36;;;;;;;1.45;0.47;;;;;;;;;;5031534;28;20339;-84
2023/01/13 06:22:10;;;;;;;2.58;0.63;;;;;;;;;;5017688;28;20050;-83
2023/01/13 06:24:37;;;;;;;1.35;0.90;;;;;;;;;;5016016;28;20490;-83
2023/01/13 06:27:05;;;;;;;1.50;0.60;;;;;;;;;;5017781;28;20053;-83
2023/01/13 06:29:34;;;;;;;0.98;0.45;;;;;;;;;;5016317;28;20045;-84
2023/01/13 06:32:04;;;;;;;1.35;0.50;;;;;;;;;;5031326;28;20076;-84
2023/01/13 06:34:31;;;;;;;;;;;;;;;;;;5019156;28;20118;-82
2023/01/13 06:36:58;;;;;;;1.15;0.40;;;;;;;;;;5024575;28;19928;-83
2023/01/13 06:39:29;;;;;;;1.00;0.45;;;;;;;;;;5018970;28;20073;-83
2023/01/13 06:44:42;;;;;;;1.55;0.50;;;;;;;;;;5020105;28;20088;-83
2023/01/13 06:47:09;;;;;;;1.73;0.50;;;;;;;;;;5031368;28;20056;-83
2023/01/13 06:49:36;;;;;;;0.95;0.45;;;;;;;;;;5040323;28;20080;-83
2023/01/13 06:52:03;;;;;;;1.98;0.45;;;;;;;;;;5038179;28;20125;-84
2023/01/13 06:54:29;;;;;;;1.48;0.50;;;;;;;;;;5039816;28;20056;-83
2023/01/13 06:56:56;;;;;;;1.48;0.52;;;;;;;;;;5034868;28;20076;-83
2023/01/13 06:59:24;;;;;;;2.45;0.50;;;;;;;;;;5031078;28;20072;-85
2023/01/13 07:01:52;;;;;;;1.15;0.50;;;;;;;;;;5040668;28;20042;-81
2023/01/13 07:04:18;;;;;;;2.15;0.80;;;;;;;;;;5026724;28;20050;-84
2023/01/13 07:06:45;;;;;;;2.08;0.60;;;;;;;;;;5031383;28;20053;-83
2023/01/13 07:09:12;;;;;;;2.70;0.90;;;;;;;;;;5035530;28;20627;-84
2023/01/13 07:11:39;;;;;;;1.85;0.90;;;;;;;;;;5041959;28;20077;-84
2023/01/13 07:16:53;;;;;;;2.25;0.75;;;;;;;;;;5041547;28;20104;-84
2023/01/13 07:19:22;;;;;;;2.67;0.75;;;;;;;;;;5048778;28;20038;-83
2023/01/13 07:21:50;;;;;;;2.15;0.70;;;;;;;;;;5035808;28;20121;-82
2023/01/13 07:24:16;;;;;;;1.45;0.63;;;;;;;;;;5034492;28;20485;-83
2023/01/13 07:26:43;;;;;;;1.45;0.52;;;;;;;;;;5028156;28;20050;-83
2023/01/13 07:29:09;;;;;;;2.08;0.57;;;;;;;;;;5021461;28;20085;-83
2023/01/13 07:31:37;;;;;;;2.63;1.45;;;;;;;;;;5028261;28;20046;-83
2023/01/13 07:34:06;;;;;;;2.33;0.75;;;;;;;;;;5025327;28;20572;-83
2023/01/13 07:36:32;;;;;;;4.63;0.75;;;;;;;;;;5025736;28;20570;-83
2023/01/13 07:38:59;;;;;;;1.73;0.60;;;;;;;;;;5031662;28;20069;-83
2023/01/13 07:44:10;;;;;;;2.85;0.75;;;;;;;;;;5042911;28;20095;-82
2023/01/13 07:46:37;;;;;;;1.25;0.50;;;;;;;;;;5048572;28;20103;-83
2023/01/13 07:49:07;;;;;;;1.40;0.60;;;;;;;;;;5045805;28;20505;-82
2023/01/13 07:51:36;;;;;;;2.58;0.68;;;;;;;;;;5048171;28;20049;-83
2023/01/13 07:54:02;;;;;;;2.58;0.70;;;;;;;;;;5046281;28;20107;-83
2023/01/13 07:56:29;;;;;;;1.67;0.73;;;;;;;;;;5047666;28;20082;-82
2023/01/13 07:58:56;;;;;;;2.90;0.80;;;;;;;;;;5033195;28;20053;-82
2023/01/13 08:01:22;;;;;;;1.63;0.68;;;;;;;;;;5047718;28;20076;-83
2023/01/13 08:03:49;;;;;;;2.63;0.70;;;;;;;;;;5032031;28;20046;-83
2023/01/13 08:06:17;;;;;;;1.08;0.50;;;;;;;;;;5030856;28;20045;-83
2023/01/13 08:08:44;;;;;;;2.60;0.57;;;;;;;;;;5025738;28;20096;-81
2023/01/13 08:11:11;;;;;;;2.38;0.55;;;;;;;;;;5023279;28;20086;-83
2023/01/13 08:13:37;;;;;;;1.98;0.63;;;;;;;;;;5025369;28;20069;-83
2023/01/13 08:16:06;;;;;;;1.40;0.52;;;;;;;;;;5043702;28;20050;-81
2023/01/13 08:18:34;;;;;;;1.30;0.80;;;;;;;;;;5040997;28;20132;-82
2023/01/13 08:21:02;;;;;;;1.70;0.60;;;;;;;;;;5037490;28;20041;-83
2023/01/13 08:23:31;;;;;;;1.08;0.60;;;;;;;;;;5040943;28;20058;-83
2023/01/13 08:26:03;;;;;;;4.20;0.73;;;;;;;;;;5042101;28;20045;-84
2023/01/13 08:28:31;;;;;;;1.50;0.55;;;;;;;;;;5042468;28;20081;-83
2023/01/13 08:30:59;;;;;;;0.85;0.35;;;;;;;;;;5038171;28;20564;-82
2023/01/13 08:33:27;;;;;;;0.85;0.40;;;;;;;;;;5034114;28;20057;-84
2023/01/13 08:35:55;;;;;;;1.95;0.63;;;;;;;;;;5020826;28;20129;-83
2023/01/13 08:38:23;;;;;;;1.67;0.55;;;;;;;;;;5034012;28;20060;-83
2023/01/13 08:40:52;;;;;;;1.85;0.50;;;;;;;;;;5038259;28;20408;-81
2023/01/13 08:43:19;;;;;;;1.73;0.63;;;;;;;;;;5041790;28;20689;-83
2023/01/13 08:45:45;;;;;;;1.98;0.55;;;;;;;;;;5028817;28;20045;-83
2023/01/13 08:48:12;;;;;;;0.98;0.50;;;;;;;;;;5028358;28;20053;-84
2023/01/13 08:50:39;;;;;;;1.00;0.40;;;;;;;;;;5032830;28;20053;-83
2023/01/13 08:53:06;;;;;;;1.58;0.60;;;;;;;;;;5017419;28;20053;-83
2023/01/13 08:55:32;;;;;;;1.60;0.40;;;;;;;;;;5030595;28;20073;-82
2023/01/13 08:58:01;;;;;;;2.53;0.60;;;;;;;;;;5014847;28;20659;-82
2023/01/13 09:00:27;;;;;;;1.85;0.55;;;;;;;;;;5015033;28;20053;-82
2023/01/13 09:02:54;;;;;;;2.05;0.70;;;;;;;;;;5016383;28;20108;-82
2023/01/13 09:05:22;;;;;;;1.10;0.60;;;;;;;;;;5026230;28;20061;-83
2023/01/13 09:07:50;;;;;;;1.10;0.50;;;;;;;;;;5033943;28;20045;-82
2023/01/13 09:10:18;;;;;;;0.68;0.50;;;;;;;;;;5024287;28;20054;-82
2023/01/13 09:15:30;;;;;;;1.73;0.55;;;;;;;;;;5035343;28;20321;-83
2023/01/13 09:17:57;;;;;;;1.05;0.50;;;;;;;;;;5016304;28;20501;-83
2023/01/13 09:20:24;;;;;;;2.90;0.60;;;;;;;;;;5028920;28;20072;-86
2023/01/13 09:22:50;;;;;;;1.70;0.47;;;;;;;;;;5025457;28;20107;-87
2023/01/13 09:25:17;;;;;;;4.32;0.70;;;;;;;;;;5028134;28;20068;-84
2023/01/13 09:27:44;;;;;;;1.33;0.50;;;;;;;;;;5022841;28;20045;-85
2023/01/13 09:30:11;;;;;;;1.33;0.50;;;;;;;;;;5033038;28;20041;-83
2023/01/13 09:32:39;;;;;;;1.15;0.57;;;;;;;;;;5027273;28;20087;-81
2023/01/13 09:35:06;;;;;;;4.82;0.70;;;;;;;;;;5030552;28;20520;-82
2023/01/13 09:37:35;;;;;;;2.03;0.60;;;;;;;;;;5029025;28;20049;-81
2023/01/13 09:40:02;;;;;;;1.75;0.50;;;;;;;;;;5036811;28;20049;-85
2023/01/13 09:45:25;;;;;;;3.33;0.60;;;;;;;;;;5014976;28;20069;-82
2023/01/13 09:47:56;;;;;;;1.83;0.50;;;;;;;;;;5029448;28;20049;-81
2023/01/13 09:50:34;;;;;;;1.58;0.60;;;;;;;;;;5025770;28;20290;-81
2023/01/13 09:53:01;;;;;;;2.08;0.70;;;;;;;;;;5034451;28;20052;-81
2023/01/13 09:55:33;;;;;;;1.73;0.50;;;;;;;;;;5024272;28;20053;-82
2023/01/13 09:58:02;;;;;;;1.30;0.50;;;;;;;;;;5026465;28;20049;-81
2023/01/13 10:00:36;;;;;;;1.95;0.50;;;;;;;;;;5034466;28;20492;-81
2023/01/13 10:03:21;;;;;;;2.13;0.65;;;;;;;;;;5047130;28;20080;-82
2023/01/13 10:05:55;;;;;;;0.95;0.50;;;;;;;;;;5031240;28;20054;-81
2023/01/13 10:08:24;;;;;;;1.65;0.60;;;;;;;;;;5046860;28;20064;-82
2023/01/13 10:10:54;;;;;;;1.45;0.60;;;;;;;;;;5055670;28;20067;-82
2023/01/13 10:13:23;;;;;;;1.30;0.55;;;;;;;;;;5049072;28;20041;-82
2023/01/13 10:15:58;;;;;;;1.30;0.60;;;;;;;;;;5034991;28;20493;-81
2023/01/13 10:18:32;;;;;;;4.32;0.90;;;;;;;;;;5019411;28;20046;-82
2023/01/13 10:21:42;;;;;;;1.45;0.70;;;;;;;;;;5015082;28;20050;-81
2023/01/13 10:24:28;;;;;;;0.57;0.43;;;;;;;;;;5026184;28;20050;-82
2023/01/13 10:27:11;;;;;;;4.22;0.50;;;;;;;;;;5031088;28;20053;-81
2023/01/13 10:29:41;;;;;;;1.33;0.40;;;;;;;;;;5016348;28;20085;-81
2023/01/13 10:32:11;;;;;;;1.42;0.30;;;;;;;;;;5033076;28;20069;-81
2023/01/13 10:34:56;;;;;;;1.48;0.50;;;;;;;;;;5023079;28;20072;-81
2023/01/13 10:37:25;;;;;;;1.58;0.60;;;;;;;;;;5016504;28;20137;-81
2023/01/13 10:39:56;;;;;;;0.47;0.30;;;;;;;;;;5027519;28;20049;-81
2023/01/13 10:42:26;;;;;;;1.80;0.50;;;;;;;;;;5019016;28;20042;-83
2023/01/13 10:44:55;;;;;;;1.65;0.50;;;;;;;;;;5029145;28;20049;-81
2023/01/13 10:47:25;;;;;;;1.65;0.35;;;;;;;;;;5023467;22;20070;-54
2023/01/13 10:50:21;;;;;;;1.75;0.60;;;;;;;;;;5011028;28;20057;-57
2023/01/13 10:53:00;;;;;;;3.13;0.52;;;;;;;;;;4996447;28;20108;-58
2023/01/13 10:55:29;;;;;;;1.65;0.50;;;;;;;;;;4983269;28;20092;-57
2023/01/13 10:57:55;;;;;;;2.72;0.75;;;;;;;;;;4992650;28;20701;-55
2023/01/13 11:00:33;;;;;;;2.85;0.45;;;;;;;;;;4990487;28;20484;-56
2023/01/13 11:03:19;;;;;;;1.67;0.70;;;;;;;;;;4990851;28;20435;-55
2023/01/13 11:05:53;;;;;;;1.05;0.40;;;;;;;;;;4989386;28;20061;-52
2023/01/13 11:08:22;;;;;;;0.70;0.30;;;;;;;;;;4993117;28;20042;-58
2023/01/13 11:10:53;;;;;;;2.58;0.50;;;;;;;;;;4990491;28;20632;-58
2023/01/13 11:13:28;;;;;;;1.15;0.40;;;;;;;;;;4988872;28;20526;-56
2023/01/13 11:16:02;;;;;;;1.52;0.35;;;;;;;;;;4989301;28;20053;-51
2023/01/13 11:18:40;;;;;;;1.52;0.50;;;;;;;;;;4986398;28;20108;-61
2023/01/13 11:21:21;;;;;;;4.10;0.60;;;;;;;;;;4987644;28;20042;-60
2023/01/13 11:23:57;;;;;;;1.30;0.52;;;;;;;;;;4984432;28;20121;-58
2023/01/13 11:26:32;;;;;;;2.95;0.70;;;;;;;;;;4984847;28;20555;-60
2023/01/13 11:29:04;;;;;;;1.08;0.57;;;;;;;;;;4986294;28;20085;-57
2023/01/13 11:31:36;;;;;;;0.98;0.50;;;;;;;;;;4987535;28;20054;-59
2023/01/13 11:34:12;;;;;;;1.63;0.40;;;;;;;;;;4990689;28;20545;-59
2023/01/13 11:36:46;;;;;;;1.20;0.40;;;;;;;;;;4991024;28;20050;-59
2023/01/13 11:39:19;;;;;;;0.98;0.50;;;;;;;;;;4989873;28;20058;-59
2023/01/13 11:42:19;;;;;;;1.95;0.60;;;;;;;;;;4996918;28;20526;-60
2023/01/13 11:44:43;;;;;;;1.15;0.32;;;;;;;;;;4990294;28;20093;-58
2023/01/13 11:47:13;;;;;;;2.25;0.60;;;;;;;;;;4976961;28;20149;-59
2023/01/13 11:49:44;;;;;;;0.70;0.47;;;;;;;;;;4987009;28;20042;-58
2023/01/13 11:52:21;;;;;;;0.70;0.30;;;;;;;;;;4990305;28;20064;-58
2023/01/13 11:55:02;;;;;;;1.67;0.63;;;;;;;;;;4978109;28;20051;-59
2023/01/13 11:57:40;;;;;;;2.45;0.50;;;;;;;;;;4981039;28;20084;-57
2023/01/13 12:00:31;;;;;;;1.63;0.40;;;;;;;;;;4981835;28;20050;-58
2023/01/13 12:03:08;;;;;;;;;;;;;;;;;;4984938;28;20038;-58
2023/01/13 12:05:37;;;;;;;1.45;0.75;;;;;;;;;;4980015;28;20402;-58
2023/01/13 12:08:18;;;;;;;0.85;0.40;;;;;;;;;;4984516;28;20054;-59
2023/01/13 12:11:01;;;;;;;1.58;0.50;;;;;;;;;;4995444;28;20050;-58
2023/01/13 12:13:39;;;;;;;1.45;0.65;;;;;;;;;;4992669;28;20064;-57
2023/01/13 12:16:15;;;;;;;1.35;0.50;;;;;;;;;;4983248;28;20047;-58
2023/01/13 12:18:59;;;;;;;2.60;0.52;;;;;;;;;;4978401;28;20082;-58
2023/01/13 12:21:29;;;;;;;1.48;0.57;;;;;;;;;;4975523;28;20050;-58
2023/01/13 12:24:12;;;;;;;2.22;0.60;;;;;;;;;;4978048;28;20047;-57
2023/01/13 12:26:43;;;;;;;4.95;0.82;;;;;;;;;;4980642;28;20066;-59
2023/01/13 12:29:14;;;;;;;3.33;0.73;;;;;;;;;;4984108;28;20046;-59
2023/01/13 12:31:43;;;;;;;1.02;0.47;;;;;;;;;;4990500;28;20099;-58
2023/01/13 12:34:23;;;;;;;1.73;0.60;;;;;;;;;;4989228;28;20116;-59
2023/01/13 12:36:58;;;;;;;1.75;0.73;;;;;;;;;;4993278;28;20046;-58
2023/01/13 12:39:33;;;;;;;2.60;0.70;;;;;;;;;;4989666;28;20132;-56
2023/01/13 12:45:21;;;;;;;2.05;0.70;;;;;;;;;;4993489;28;20057;-59
2023/01/13 12:47:48;;;;;;;1.90;0.60;;;;;;;;;;4971150;28;20468;-59
2023/01/13 12:50:39;;;;;;;1.52;0.60;;;;;;;;;;4984889;28;20054;-59
2023/01/13 12:53:24;;;;;;;;;;;;;;;;;;4974875;28;20050;-59
2023/01/13 12:55:53;;;;;;;1.48;0.60;;;;;;;;;;4982864;28;20382;-59
2023/01/13 12:58:28;;;;;;;0.85;0.52;;;;;;;;;;4985507;28;20492;-59
2023/01/13 13:00:59;;;;;;;1.38;0.50;;;;;;;;;;4985558;28;20042;-57
2023/01/13 13:03:32;;;;;;;4.53;0.60;;;;;;;;;;4983820;28;20459;-59
2023/01/13 13:06:07;;;;;;;2.50;0.80;;;;;;;;;;4982193;28;20042;-59
2023/01/13 13:09:00;;;;;;;1.02;0.50;;;;;;;;;;4982783;28;20050;-64
2023/01/13 13:15:02;;;;;;;2.55;0.57;;;;;;;;;;4993758;28;20058;-68
2023/01/13 13:17:43;;;;;;;2.22;0.73;;;;;;;;;;4987845;28;20178;-64
2023/01/13 13:20:28;;;;;;;;;;;;;;;;;;4976268;28;20470;-58
2023/01/13 13:22:55;;;;;;;2.00;0.80;;;;;;;;;;4999177;28;19942;-58
2023/01/13 13:25:26;;;;;;;2.33;0.85;;;;;;;;;;4992252;28;20050;-55
2023/01/13 13:28:07;;;;;;;;;;;;;;;;;;5006492;22;20475;-50
2023/01/13 13:30:39;;;;;;;2.85;0.70;;;;;;;;;;4990771;28;19929;-51
2023/01/13 13:33:24;;;;;;;2.47;0.90;;;;;;;;;;4992921;28;20419;-50
2023/01/13 13:36:02;;;;;;;1.55;0.68;;;;;;;;;;4992633;28;20058;-50
2023/01/13 13:47:11;;;;;;;1.48;0.50;;;;;;;;;;4989435;28;20108;-54
2023/01/13 13:49:41;;;;;;;2.03;0.75;;;;;;;;;;4992587;28;20050;-51
2023/01/13 13:52:14;;;;;;;0.98;0.60;;;;;;;;;;4992404;28;20138;-51
2023/01/13 13:54:46;;;;;;;1.70;0.60;;;;;;;;;;4992327;28;20054;-53
2023/01/13 13:57:19;;;;;;;1.88;0.60;;;;;;;;;;4992657;28;20480;-50
2023/01/13 13:59:52;;;;;;;2.40;0.75;;;;;;;;;;4992418;28;20057;-52
2023/01/13 14:02:27;;;;;;;1.55;0.70;;;;;;;;;;4992171;28;20145;-52
2023/01/13 14:05:07;;;;;;;1.73;0.50;;;;;;;;;;4991188;28;20057;-50
2023/01/13 14:07:43;;;;;;;2.40;1.15;;;;;;;;;;4991714;28;20042;-48
2023/01/13 14:10:16;;;;;;;3.45;0.55;;;;;;;;;;4984600;28;20133;-52
2023/01/13 14:12:43;;;;;;;2.10;0.40;;;;;;;;;;4986698;28;20480;-50
2023/01/13 14:15:28;;;;;;;1.05;0.40;;;;;;;;;;4989537;28;20145;-53
2023/01/13 14:17:56;;;;;;;1.17;0.55;;;;;;;;;;4995592;28;20054;-51
2023/01/13 14:20:23;;;;;;;0.93;0.50;;;;;;;;;;4991294;28;20058;-52
2023/01/13 14:22:53;;;;;;;1.15;0.70;;;;;;;;;;4991388;28;20039;-51
2023/01/13 14:25:32;;;;;;;3.35;0.40;;;;;;;;;;4991778;28;20539;-53
2023/01/13 14:28:03;;;;;;;1.70;0.40;;;;;;;;;;4991420;28;20049;-51
2023/01/13 14:30:31;;;;;;;0.65;0.40;;;;;;;;;;4973241;28;20480;-51
2023/01/13 14:33:00;;;;;;;1.15;0.40;;;;;;;;;;4991683;28;20503;-50
2023/01/13 14:35:28;;;;;;;1.38;0.70;;;;;;;;;;4991661;28;20046;-52
2023/01/13 14:38:03;;;;;;;1.15;0.40;;;;;;;;;;4992491;28;20053;-52
2023/01/13 14:40:45;;;;;;;0.77;0.40;;;;;;;;;;4991633;28;20439;-53
2023/01/13 14:43:15;;;;;;;1.30;0.45;;;;;;;;;;4991458;28;20132;-52
2023/01/13 14:45:54;;;;;;;2.75;0.50;;;;;;;;;;4991363;28;20507;-51
2023/01/13 14:48:29;;;;;;;1.15;0.52;;;;;;;;;;4991507;28;20495;-53
2023/01/13 14:50:57;;;;;;;1.00;0.40;;;;;;;;;;4990844;28;20050;-51
2023/01/13 14:53:37;;;;;;;1.15;0.50;;;;;;;;;;4991295;28;20435;-54
2023/01/13 14:56:39;;;;;;;2.50;0.50;;;;;;;;;;4991143;28;20042;-53
2023/01/13 14:59:33;;;;;;;2.20;0.43;;;;;;;;;;4977849;28;20105;-50
2023/01/13 15:02:01;;;;;;;1.42;0.70;;;;;;;;;;4947388;28;20352;-54
2023/01/13 15:04:35;;;;;;;0.77;0.43;;;;;;;;;;4988994;28;20058;-52
2023/01/13 15:07:03;;;;;;;2.00;0.80;;;;;;;;;;4972727;28;20105;-61
2023/01/13 15:09:37;;;;;;;0.68;0.30;;;;;;;;;;4977257;28;20054;-51
2023/01/13 15:12:22;;;;;;;2.40;0.55;;;;;;;;;;4990783;28;20062;-52
2023/01/13 15:14:51;;;;;;;2.15;0.70;;;;;;;;;;4990442;28;20129;-49
2023/01/13 15:17:18;;;;;;;1.33;0.50;;;;;;;;;;4985570;28;20061;-51
2023/01/13 15:19:46;;;;;;;2.40;0.90;;;;;;;;;;4990646;28;20405;-50
2023/01/13 15:22:13;;;;;;;2.40;0.98;;;;;;;;;;4990298;28;20050;-52
2023/01/13 15:24:40;;;;;;;2.78;0.80;;;;;;;;;;4990731;28;20046;-55
2023/01/13 15:27:17;;;;;;;2.53;0.80;;;;;;;;;;4990491;28;20050;-52
2023/01/13 15:29:44;;;;;;;2.92;1.00;;;;;;;;;;4989333;28;20109;-53
2023/01/13 15:32:19;;;;;;;3.85;1.08;;;;;;;;;;5006501;28;20069;-51
2023/01/13 15:34:48;;;;;;;1.85;0.82;;;;;;;;;;4993282;28;20622;-54
2023/01/13 15:37:15;;;;;;;2.17;0.60;;;;;;;;;;4990261;28;20046;-50
2023/01/13 15:39:43;;;;;;;3.40;1.00;;;;;;;;;;4991085;28;20500;-49
2023/01/13 15:47:42;;;;;;;3.22;1.00;;;;;;;;;;4990594;28;20109;-52
2023/01/13 15:50:14;;;;;;;2.42;0.77;;;;;;;;;;4999044;28;20053;-50
2023/01/13 15:52:41;;;;;;;2.45;0.82;;;;;;;;;;5009889;28;20081;-50
2023/01/13 15:55:08;;;;;;;3.38;0.88;;;;;;;;;;5002958;28;20050;-52
2023/01/13 15:57:37;;;;;;;1.67;0.90;;;;;;;;;;4990477;28;20050;-50
2023/01/13 16:00:12;;;;;;;3.92;0.80;;;;;;;;;;4990387;28;20554;-50
2023/01/13 16:02:39;;;;;;;1.92;0.80;;;;;;;;;;4992890;28;20047;-51
2023/01/13 16:05:06;;;;;;;3.67;1.17;;;;;;;;;;4985849;28;20042;-51
2023/01/13 16:07:34;;;;;;;2.85;1.30;;;;;;;;;;4986119;28;20106;-50
2023/01/13 16:10:03;;;;;;;3.15;1.15;;;;;;;;;;4987583;28;20472;-53
2023/01/13 16:12:30;;;;;;;3.83;1.20;;;;;;;;;;4976136;28;20046;-55